sensor_id;sensor_type;location;lat;lon;timestamp;temperature;humidity
43772;HTU21D;59066;54.782;32.024;2023-04-25T00:00:42;12.76;42.55
43772;HTU21D;59066;54.782;32.024;2023-04-25T00:03:10;12.72;42.76
43772;HTU21D;59066;54.782;32.024;2023-04-25T00:05:38;12.73;42.86
43772;HTU21D;59066;54.782;32.024;2023-04-25T00:08:06;12.70;43.06
43772;HTU21D;59066;54.782;32.024;2023-04-25T00:10:34;12.63;43.06
43772;HTU21D;59066;54.782;32.024;2023-04-25T00:13:02;12.60;43.33
43772;HTU21D;59066;54.782;32.024;2023-04-25T00:15:29;12.55;43.52
43772;HTU21D;59066;54.782;32.024;2023-04-25T00:17:57;12.50;43.84
43772;HTU21D;59066;54.782;32.024;2023-04-25T00:20:25;12.47;43.79
43772;HTU21D;59066;54.782;32.024;2023-04-25T00:22:52;12.45;43.90
43772;HTU21D;59066;54.782;32.024;2023-04-25T00:25:20;12.43;44.18
43772;HTU21D;59066;54.782;32.024;2023-04-25T00:27:48;12.44;44.04
43772;HTU21D;59066;54.782;32.024;2023-04-25T00:30:15;12.44;44.04
43772;HTU21D;59066;54.782;32.024;2023-04-25T00:32:43;12.44;44.27
43772;HTU21D;59066;54.782;32.024;2023-04-25T00:35:10;12.45;44.39
43772;HTU21D;59066;54.782;32.024;2023-04-25T00:37:38;12.47;44.32
43772;HTU21D;59066;54.782;32.024;2023-04-25T00:40:06;12.46;44.54
43772;HTU21D;59066;54.782;32.024;2023-04-25T00:42:35;12.47;44.50
43772;HTU21D;59066;54.782;32.024;2023-04-25T00:45:05;12.44;44.85
43772;HTU21D;59066;54.782;32.024;2023-04-25T00:47:35;12.43;44.80
43772;HTU21D;59066;54.782;32.024;2023-04-25T00:50:03;12.40;44.68
43772;HTU21D;59066;54.782;32.024;2023-04-25T00:52:31;12.37;44.56
43772;HTU21D;59066;54.782;32.024;2023-04-25T00:54:59;12.28;45.03
43772;HTU21D;59066;54.782;32.024;2023-04-25T00:57:27;12.20;45.04
43772;HTU21D;59066;54.782;32.024;2023-04-25T00:59:55;12.14;45.26
43772;HTU21D;59066;54.782;32.024;2023-04-25T01:02:23;12.06;45.57
43772;HTU21D;59066;54.782;32.024;2023-04-25T01:04:51;12.00;45.76
43772;HTU21D;59066;54.782;32.024;2023-04-25T01:07:18;11.96;45.99
43772;HTU21D;59066;54.782;32.024;2023-04-25T01:09:46;11.96;46.00
43772;HTU21D;59066;54.782;32.024;2023-04-25T01:12:14;11.99;46.05
43772;HTU21D;59066;54.782;32.024;2023-04-25T01:14:42;12.00;46.17
43772;HTU21D;59066;54.782;32.024;2023-04-25T01:17:10;12.00;46.38
43772;HTU21D;59066;54.782;32.024;2023-04-25T01:19:37;12.01;46.56
43772;HTU21D;59066;54.782;32.024;2023-04-25T01:22:05;12.02;46.54
43772;HTU21D;59066;54.782;32.024;2023-04-25T01:24:33;12.03;46.45
43772;HTU21D;59066;54.782;32.024;2023-04-25T01:27:02;12.01;46.38
43772;HTU21D;59066;54.782;32.024;2023-04-25T01:29:30;11.99;46.58
43772;HTU21D;59066;54.782;32.024;2023-04-25T01:31:59;11.92;46.78
43772;HTU21D;59066;54.782;32.024;2023-04-25T01:34:27;11.88;46.99
43772;HTU21D;59066;54.782;32.024;2023-04-25T01:36:59;11.76;47.33
43772;HTU21D;59066;54.782;32.024;2023-04-25T01:39:28;11.67;47.47
43772;HTU21D;59066;54.782;32.024;2023-04-25T01:41:55;11.63;47.40
43772;HTU21D;59066;54.782;32.024;2023-04-25T01:44:23;11.60;47.47
43772;HTU21D;59066;54.782;32.024;2023-04-25T01:46:51;11.55;47.66
43772;HTU21D;59066;54.782;32.024;2023-04-25T01:49:19;11.48;47.85
43772;HTU21D;59066;54.782;32.024;2023-04-25T01:51:46;11.42;47.86
43772;HTU21D;59066;54.782;32.024;2023-04-25T01:54:15;11.34;48.22
43772;HTU21D;59066;54.782;32.024;2023-04-25T01:56:42;11.19;48.82
43772;HTU21D;59066;54.782;32.024;2023-04-25T01:59:11;11.11;49.18
43772;HTU21D;59066;54.782;32.024;2023-04-25T02:01:44;11.00;49.50
43772;HTU21D;59066;54.782;32.024;2023-04-25T02:04:21;10.96;49.49
43772;HTU21D;59066;54.782;32.024;2023-04-25T02:06:48;10.93;49.76
43772;HTU21D;59066;54.782;32.024;2023-04-25T02:09:16;10.90;49.97
43772;HTU21D;59066;54.782;32.024;2023-04-25T02:11:49;10.83;50.11
43772;HTU21D;59066;54.782;32.024;2023-04-25T02:14:52;10.75;50.53
43772;HTU21D;59066;54.782;32.024;2023-04-25T02:17:40;10.74;50.76
43772;HTU21D;59066;54.782;32.024;2023-04-25T02:20:08;10.75;50.96
43772;HTU21D;59066;54.782;32.024;2023-04-25T02:22:35;10.68;51.64
43772;HTU21D;59066;54.782;32.024;2023-04-25T02:25:05;10.59;52.02
43772;HTU21D;59066;54.782;32.024;2023-04-25T02:27:33;10.53;52.77
43772;HTU21D;59066;54.782;32.024;2023-04-25T02:30:01;10.46;53.12
43772;HTU21D;59066;54.782;32.024;2023-04-25T02:32:28;10.36;53.45
43772;HTU21D;59066;54.782;32.024;2023-04-25T02:34:56;10.37;53.49
43772;HTU21D;59066;54.782;32.024;2023-04-25T02:37:26;10.33;53.49
43772;HTU21D;59066;54.782;32.024;2023-04-25T02:39:53;10.33;53.87
43772;HTU21D;59066;54.782;32.024;2023-04-25T02:42:21;10.25;54.21
43772;HTU21D;59066;54.782;32.024;2023-04-25T02:44:49;10.23;54.74
43772;HTU21D;59066;54.782;32.024;2023-04-25T02:47:16;10.21;54.62
43772;HTU21D;59066;54.782;32.024;2023-04-25T02:49:44;10.19;55.11
43772;HTU21D;59066;54.782;32.024;2023-04-25T02:52:12;10.18;55.22
43772;HTU21D;59066;54.782;32.024;2023-04-25T02:54:41;10.18;55.12
43772;HTU21D;59066;54.782;32.024;2023-04-25T02:57:08;10.21;55.15
43772;HTU21D;59066;54.782;32.024;2023-04-25T02:59:37;10.24;55.07
43772;HTU21D;59066;54.782;32.024;2023-04-25T03:02:05;10.25;55.20
43772;HTU21D;59066;54.782;32.024;2023-04-25T03:04:32;10.26;55.13
43772;HTU21D;59066;54.782;32.024;2023-04-25T03:07:01;10.25;55.72
43772;HTU21D;59066;54.782;32.024;2023-04-25T03:09:28;10.25;55.90
43772;HTU21D;59066;54.782;32.024;2023-04-25T03:11:56;10.26;55.84
43772;HTU21D;59066;54.782;32.024;2023-04-25T03:14:24;10.28;56.08
43772;HTU21D;59066;54.782;32.024;2023-04-25T03:16:51;10.31;55.77
43772;HTU21D;59066;54.782;32.024;2023-04-25T03:19:19;10.36;55.78
43772;HTU21D;59066;54.782;32.024;2023-04-25T03:21:47;10.35;56.01
43772;HTU21D;59066;54.782;32.024;2023-04-25T03:24:15;10.35;56.19
43772;HTU21D;59066;54.782;32.024;2023-04-25T03:26:43;10.37;56.31
43772;HTU21D;59066;54.782;32.024;2023-04-25T03:29:10;10.37;56.28
43772;HTU21D;59066;54.782;32.024;2023-04-25T03:31:40;10.37;56.39
43772;HTU21D;59066;54.782;32.024;2023-04-25T03:34:08;10.37;56.71
43772;HTU21D;59066;54.782;32.024;2023-04-25T03:36:36;10.37;56.58
43772;HTU21D;59066;54.782;32.024;2023-04-25T03:39:06;10.42;56.52
43772;HTU21D;59066;54.782;32.024;2023-04-25T03:41:34;10.43;56.62
43772;HTU21D;59066;54.782;32.024;2023-04-25T03:44:07;10.50;56.50
43772;HTU21D;59066;54.782;32.024;2023-04-25T03:46:34;10.48;56.82
43772;HTU21D;59066;54.782;32.024;2023-04-25T03:49:02;10.49;56.74
43772;HTU21D;59066;54.782;32.024;2023-04-25T03:51:49;10.52;56.84
43772;HTU21D;59066;54.782;32.024;2023-04-25T03:54:17;10.58;56.65
43772;HTU21D;59066;54.782;32.024;2023-04-25T03:56:53;10.59;56.55
43772;HTU21D;59066;54.782;32.024;2023-04-25T03:59:24;10.66;56.49
43772;HTU21D;59066;54.782;32.024;2023-04-25T04:01:53;10.75;56.45
43772;HTU21D;59066;54.782;32.024;2023-04-25T04:04:21;10.82;56.28
43772;HTU21D;59066;54.782;32.024;2023-04-25T04:06:49;10.84;56.24
43772;HTU21D;59066;54.782;32.024;2023-04-25T04:09:24;10.87;56.24
43772;HTU21D;59066;54.782;32.024;2023-04-25T04:11:54;10.89;56.22
43772;HTU21D;59066;54.782;32.024;2023-04-25T04:14:22;10.96;56.22
43772;HTU21D;59066;54.782;32.024;2023-04-25T04:16:51;10.99;56.27
43772;HTU21D;59066;54.782;32.024;2023-04-25T04:19:20;11.00;56.29
43772;HTU21D;59066;54.782;32.024;2023-04-25T04:22:14;11.02;56.10
43772;HTU21D;59066;54.782;32.024;2023-04-25T04:24:42;11.12;56.04
43772;HTU21D;59066;54.782;32.024;2023-04-25T04:27:19;11.20;55.94
43772;HTU21D;59066;54.782;32.024;2023-04-25T04:30:07;11.30;55.69
43772;HTU21D;59066;54.782;32.024;2023-04-25T04:32:51;11.41;55.52
43772;HTU21D;59066;54.782;32.024;2023-04-25T04:35:20;11.43;55.34
43772;HTU21D;59066;54.782;32.024;2023-04-25T04:37:48;11.55;55.26
43772;HTU21D;59066;54.782;32.024;2023-04-25T04:40:17;11.55;55.28
43772;HTU21D;59066;54.782;32.024;2023-04-25T04:42:52;11.61;55.28
43772;HTU21D;59066;54.782;32.024;2023-04-25T04:45:39;11.66;55.18
43772;HTU21D;59066;54.782;32.024;2023-04-25T04:48:25;11.63;55.28
43772;HTU21D;59066;54.782;32.024;2023-04-25T04:50:53;11.68;55.24
43772;HTU21D;59066;54.782;32.024;2023-04-25T04:53:23;11.74;55.11
43772;HTU21D;59066;54.782;32.024;2023-04-25T04:56:09;11.85;54.99
43772;HTU21D;59066;54.782;32.024;2023-04-25T04:58:51;12.01;54.70
43772;HTU21D;59066;54.782;32.024;2023-04-25T05:01:42;12.10;54.54
43772;HTU21D;59066;54.782;32.024;2023-04-25T05:04:13;12.15;54.46
43772;HTU21D;59066;54.782;32.024;2023-04-25T05:07:01;12.30;54.33
43772;HTU21D;59066;54.782;32.024;2023-04-25T05:09:54;12.50;53.95
43772;HTU21D;59066;54.782;32.024;2023-04-25T05:12:57;12.70;53.65
43772;HTU21D;59066;54.782;32.024;2023-04-25T05:15:25;12.77;53.52
43772;HTU21D;59066;54.782;32.024;2023-04-25T05:18:14;12.92;53.13
43772;HTU21D;59066;54.782;32.024;2023-04-25T05:21:05;13.04;52.84
43772;HTU21D;59066;54.782;32.024;2023-04-25T05:23:44;13.12;52.78
43772;HTU21D;59066;54.782;32.024;2023-04-25T05:26:30;13.30;52.48
43772;HTU21D;59066;54.782;32.024;2023-04-25T05:29:16;13.46;52.24
43772;HTU21D;59066;54.782;32.024;2023-04-25T05:31:59;13.65;51.73
43772;HTU21D;59066;54.782;32.024;2023-04-25T05:34:26;13.79;51.60
43772;HTU21D;59066;54.782;32.024;2023-04-25T05:37:04;13.97;51.38
43772;HTU21D;59066;54.782;32.024;2023-04-25T05:39:35;14.06;50.82
43772;HTU21D;59066;54.782;32.024;2023-04-25T05:42:21;14.12;50.96
43772;HTU21D;59066;54.782;32.024;2023-04-25T05:44:49;14.23;50.59
43772;HTU21D;59066;54.782;32.024;2023-04-25T05:47:43;14.34;50.27
43772;HTU21D;59066;54.782;32.024;2023-04-25T05:50:40;14.34;50.02
43772;HTU21D;59066;54.782;32.024;2023-04-25T05:53:42;14.39;49.90
43772;HTU21D;59066;54.782;32.024;2023-04-25T05:56:12;14.41;49.65
43772;HTU21D;59066;54.782;32.024;2023-04-25T05:58:40;14.44;49.48
43772;HTU21D;59066;54.782;32.024;2023-04-25T06:01:10;14.43;49.34
43772;HTU21D;59066;54.782;32.024;2023-04-25T06:03:37;14.43;49.49
43772;HTU21D;59066;54.782;32.024;2023-04-25T06:06:05;14.60;49.31
43772;HTU21D;59066;54.782;32.024;2023-04-25T06:08:33;14.77;48.90
43772;HTU21D;59066;54.782;32.024;2023-04-25T06:11:01;14.86;48.60
43772;HTU21D;59066;54.782;32.024;2023-04-25T06:13:28;14.95;48.04
43772;HTU21D;59066;54.782;32.024;2023-04-25T06:15:56;15.09;47.90
43772;HTU21D;59066;54.782;32.024;2023-04-25T06:18:25;15.23;47.63
43772;HTU21D;59066;54.782;32.024;2023-04-25T06:20:52;15.40;47.16
43772;HTU21D;59066;54.782;32.024;2023-04-25T06:23:23;15.42;46.66
43772;HTU21D;59066;54.782;32.024;2023-04-25T06:26:00;15.51;46.39
43772;HTU21D;59066;54.782;32.024;2023-04-25T06:28:29;15.62;45.97
43772;HTU21D;59066;54.782;32.024;2023-04-25T06:30:57;15.71;45.57
43772;HTU21D;59066;54.782;32.024;2023-04-25T06:33:24;15.74;44.93
43772;HTU21D;59066;54.782;32.024;2023-04-25T06:35:53;15.75;45.16
43772;HTU21D;59066;54.782;32.024;2023-04-25T06:38:25;15.86;45.16
43772;HTU21D;59066;54.782;32.024;2023-04-25T06:40:55;16.00;44.67
43772;HTU21D;59066;54.782;32.024;2023-04-25T06:43:22;16.15;44.57
43772;HTU21D;59066;54.782;32.024;2023-04-25T06:46:16;16.28;44.35
43772;HTU21D;59066;54.782;32.024;2023-04-25T06:48:46;16.40;43.58
43772;HTU21D;59066;54.782;32.024;2023-04-25T06:51:15;16.37;43.32
43772;HTU21D;59066;54.782;32.024;2023-04-25T06:53:44;16.46;43.06
43772;HTU21D;59066;54.782;32.024;2023-04-25T06:56:22;16.50;43.33
43772;HTU21D;59066;54.782;32.024;2023-04-25T06:58:57;16.65;42.90
43772;HTU21D;59066;54.782;32.024;2023-04-25T07:01:46;16.75;42.57
43772;HTU21D;59066;54.782;32.024;2023-04-25T07:04:17;16.88;42.55
43772;HTU21D;59066;54.782;32.024;2023-04-25T07:06:49;16.93;42.32
43772;HTU21D;59066;54.782;32.024;2023-04-25T07:09:21;17.05;42.27
43772;HTU21D;59066;54.782;32.024;2023-04-25T07:11:50;17.19;42.03
43772;HTU21D;59066;54.782;32.024;2023-04-25T07:14:18;17.26;41.84
43772;HTU21D;59066;54.782;32.024;2023-04-25T07:16:45;17.26;40.94
43772;HTU21D;59066;54.782;32.024;2023-04-25T07:19:13;17.32;41.13
43772;HTU21D;59066;54.782;32.024;2023-04-25T07:21:41;17.44;41.26
43772;HTU21D;59066;54.782;32.024;2023-04-25T07:24:10;17.61;41.05
43772;HTU21D;59066;54.782;32.024;2023-04-25T07:26:42;17.67;39.90
43772;HTU21D;59066;54.782;32.024;2023-04-25T07:29:25;17.70;40.10
43772;HTU21D;59066;54.782;32.024;2023-04-25T07:31:53;17.78;39.81
43772;HTU21D;59066;54.782;32.024;2023-04-25T07:34:21;17.80;39.65
43772;HTU21D;59066;54.782;32.024;2023-04-25T07:36:49;18.11;39.19
43772;HTU21D;59066;54.782;32.024;2023-04-25T07:39:16;18.10;38.04
43772;HTU21D;59066;54.782;32.024;2023-04-25T07:41:44;18.11;37.99
43772;HTU21D;59066;54.782;32.024;2023-04-25T07:44:17;18.25;37.98
43772;HTU21D;59066;54.782;32.024;2023-04-25T07:46:45;18.10;36.06
43772;HTU21D;59066;54.782;32.024;2023-04-25T07:49:13;17.97;36.34
43772;HTU21D;59066;54.782;32.024;2023-04-25T07:51:43;17.92;36.37
43772;HTU21D;59066;54.782;32.024;2023-04-25T07:54:14;18.06;36.19
43772;HTU21D;59066;54.782;32.024;2023-04-25T07:56:48;18.00;36.05
43772;HTU21D;59066;54.782;32.024;2023-04-25T07:59:20;17.91;36.24
43772;HTU21D;59066;54.782;32.024;2023-04-25T08:01:49;17.91;36.65
43772;HTU21D;59066;54.782;32.024;2023-04-25T08:04:18;17.92;36.59
43772;HTU21D;59066;54.782;32.024;2023-04-25T08:06:53;17.95;36.46
43772;HTU21D;59066;54.782;32.024;2023-04-25T08:09:27;18.02;36.24
43772;HTU21D;59066;54.782;32.024;2023-04-25T08:11:56;18.15;35.95
43772;HTU21D;59066;54.782;32.024;2023-04-25T08:14:29;18.09;35.68
43772;HTU21D;59066;54.782;32.024;2023-04-25T08:17:03;18.11;35.75
43772;HTU21D;59066;54.782;32.024;2023-04-25T08:19:33;18.21;35.50
43772;HTU21D;59066;54.782;32.024;2023-04-25T08:22:01;18.36;35.52
43772;HTU21D;59066;54.782;32.024;2023-04-25T08:24:38;18.49;35.24
43772;HTU21D;59066;54.782;32.024;2023-04-25T08:27:08;18.47;34.99
43772;HTU21D;59066;54.782;32.024;2023-04-25T08:29:35;18.43;34.76
43772;HTU21D;59066;54.782;32.024;2023-04-25T08:32:03;18.57;34.64
43772;HTU21D;59066;54.782;32.024;2023-04-25T08:34:32;18.61;34.58
43772;HTU21D;59066;54.782;32.024;2023-04-25T08:37:03;18.64;34.42
43772;HTU21D;59066;54.782;32.024;2023-04-25T08:39:44;18.68;34.15
43772;HTU21D;59066;54.782;32.024;2023-04-25T08:42:31;18.83;33.01
43772;HTU21D;59066;54.782;32.024;2023-04-25T08:45:02;18.99;32.40
43772;HTU21D;59066;54.782;32.024;2023-04-25T08:47:37;19.08;31.54
43772;HTU21D;59066;54.782;32.024;2023-04-25T08:50:06;19.00;32.22
43772;HTU21D;59066;54.782;32.024;2023-04-25T08:55:01;19.52;31.62
43772;HTU21D;59066;54.782;32.024;2023-04-25T08:57:31;19.56;31.67
43772;HTU21D;59066;54.782;32.024;2023-04-25T08:59:59;19.70;30.71
43772;HTU21D;59066;54.782;32.024;2023-04-25T09:02:29;19.79;30.87
43772;HTU21D;59066;54.782;32.024;2023-04-25T09:04:57;19.82;30.99
43772;HTU21D;59066;54.782;32.024;2023-04-25T09:07:24;19.94;31.34
43772;HTU21D;59066;54.782;32.024;2023-04-25T09:09:53;20.15;31.01
43772;HTU21D;59066;54.782;32.024;2023-04-25T09:12:22;20.29;30.61
43772;HTU21D;59066;54.782;32.024;2023-04-25T09:15:10;20.57;29.93
43772;HTU21D;59066;54.782;32.024;2023-04-25T09:21:10;20.88;29.72
43772;HTU21D;59066;54.782;32.024;2023-04-25T09:23:49;20.87;29.08
43772;HTU21D;59066;54.782;32.024;2023-04-25T09:26:20;20.48;29.30
43772;HTU21D;59066;54.782;32.024;2023-04-25T09:29:05;20.24;29.52
43772;HTU21D;59066;54.782;32.024;2023-04-25T09:31:36;20.03;30.06
43772;HTU21D;59066;54.782;32.024;2023-04-25T09:34:06;20.30;30.10
43772;HTU21D;59066;54.782;32.024;2023-04-25T09:36:42;20.58;29.55
43772;HTU21D;59066;54.782;32.024;2023-04-25T09:39:28;20.87;28.65
43772;HTU21D;59066;54.782;32.024;2023-04-25T09:42:04;20.64;28.75
43772;HTU21D;59066;54.782;32.024;2023-04-25T09:44:31;20.85;28.97
43772;HTU21D;59066;54.782;32.024;2023-04-25T09:47:01;20.81;28.25
43772;HTU21D;59066;54.782;32.024;2023-04-25T09:51:57;20.93;28.57
43772;HTU21D;59066;54.782;32.024;2023-04-25T09:54:30;20.96;28.52
43772;HTU21D;59066;54.782;32.024;2023-04-25T09:57:11;20.91;27.45
43772;HTU21D;59066;54.782;32.024;2023-04-25T09:59:48;20.69;28.00
43772;HTU21D;59066;54.782;32.024;2023-04-25T10:02:18;20.88;28.32
43772;HTU21D;59066;54.782;32.024;2023-04-25T10:04:51;21.25;28.17
43772;HTU21D;59066;54.782;32.024;2023-04-25T10:07:29;21.19;26.76
43772;HTU21D;59066;54.782;32.024;2023-04-25T10:10:01;21.38;26.88
43772;HTU21D;59066;54.782;32.024;2023-04-25T10:12:32;22.23;25.97
43772;HTU21D;59066;54.782;32.024;2023-04-25T10:15:01;22.42;25.53
43772;HTU21D;59066;54.782;32.024;2023-04-25T10:17:31;22.76;25.52
43772;HTU21D;59066;54.782;32.024;2023-04-25T10:20:01;23.44;24.44
43772;HTU21D;59066;54.782;32.024;2023-04-25T10:22:35;23.62;23.56
43772;HTU21D;59066;54.782;32.024;2023-04-25T10:25:04;23.76;23.82
43772;HTU21D;59066;54.782;32.024;2023-04-25T10:27:35;23.87;22.97
43772;HTU21D;59066;54.782;32.024;2023-04-25T10:30:11;24.53;21.56
43772;HTU21D;59066;54.782;32.024;2023-04-25T10:32:42;25.25;21.41
43772;HTU21D;59066;54.782;32.024;2023-04-25T10:35:25;25.31;19.44
43772;HTU21D;59066;54.782;32.024;2023-04-25T10:40:25;25.47;20.12
43772;HTU21D;59066;54.782;32.024;2023-04-25T10:42:54;25.99;19.92
43772;HTU21D;59066;54.782;32.024;2023-04-25T10:45:22;26.33;19.79
43772;HTU21D;59066;54.782;32.024;2023-04-25T10:47:50;27.30;19.40
43772;HTU21D;59066;54.782;32.024;2023-04-25T10:50:17;28.16;18.80
43772;HTU21D;59066;54.782;32.024;2023-04-25T10:52:45;27.30;17.96
43772;HTU21D;59066;54.782;32.024;2023-04-25T10:55:12;26.15;17.41
43772;HTU21D;59066;54.782;32.024;2023-04-25T10:57:44;25.40;18.58
43772;HTU21D;59066;54.782;32.024;2023-04-25T11:00:20;25.79;18.84
43772;HTU21D;59066;54.782;32.024;2023-04-25T11:02:58;26.91;18.44
43772;HTU21D;59066;54.782;32.024;2023-04-25T11:05:32;26.85;17.57
43772;HTU21D;59066;54.782;32.024;2023-04-25T11:08:02;25.65;18.25
43772;HTU21D;59066;54.782;32.024;2023-04-25T11:10:34;24.93;19.02
43772;HTU21D;59066;54.782;32.024;2023-04-25T11:13:04;24.55;19.46
43772;HTU21D;59066;54.782;32.024;2023-04-25T11:15:32;24.40;19.62
43772;HTU21D;59066;54.782;32.024;2023-04-25T11:18:00;23.81;19.94
43772;HTU21D;59066;54.782;32.024;2023-04-25T11:20:28;23.42;20.48
43772;HTU21D;59066;54.782;32.024;2023-04-25T11:22:57;23.13;20.80
43772;HTU21D;59066;54.782;32.024;2023-04-25T11:25:29;22.99;21.16
43772;HTU21D;59066;54.782;32.024;2023-04-25T11:27:59;23.55;20.99
43772;HTU21D;59066;54.782;32.024;2023-04-25T11:30:28;24.54;20.66
43772;HTU21D;59066;54.782;32.024;2023-04-25T11:32:57;24.50;20.29
43772;HTU21D;59066;54.782;32.024;2023-04-25T11:35:26;24.15;20.61
43772;HTU21D;59066;54.782;32.024;2023-04-25T11:37:53;24.10;20.64
43772;HTU21D;59066;54.782;32.024;2023-04-25T11:40:21;24.13;20.38
43772;HTU21D;59066;54.782;32.024;2023-04-25T11:42:48;23.86;21.02
43772;HTU21D;59066;54.782;32.024;2023-04-25T11:45:16;23.59;22.15
43772;HTU21D;59066;54.782;32.024;2023-04-25T11:47:45;23.46;21.86
43772;HTU21D;59066;54.782;32.024;2023-04-25T11:50:13;23.66;21.29
43772;HTU21D;59066;54.782;32.024;2023-04-25T11:52:46;23.41;21.27
43772;HTU21D;59066;54.782;32.024;2023-04-25T11:55:15;23.44;21.43
43772;HTU21D;59066;54.782;32.024;2023-04-25T11:57:48;23.61;21.85
43772;HTU21D;59066;54.782;32.024;2023-04-25T12:00:21;23.51;21.96
43772;HTU21D;59066;54.782;32.024;2023-04-25T12:02:54;23.86;21.73
43772;HTU21D;59066;54.782;32.024;2023-04-25T12:05:29;24.58;22.10
43772;HTU21D;59066;54.782;32.024;2023-04-25T12:08:15;26.48;19.88
43772;HTU21D;59066;54.782;32.024;2023-04-25T12:10:45;27.60;19.07
43772;HTU21D;59066;54.782;32.024;2023-04-25T12:13:21;27.49;17.67
43772;HTU21D;59066;54.782;32.024;2023-04-25T12:15:49;27.25;18.38
43772;HTU21D;59066;54.782;32.024;2023-04-25T12:18:22;26.77;18.00
43772;HTU21D;59066;54.782;32.024;2023-04-25T12:20:52;26.47;18.04
43772;HTU21D;59066;54.782;32.024;2023-04-25T12:23:27;26.30;17.93
43772;HTU21D;59066;54.782;32.024;2023-04-25T12:25:55;26.07;18.13
43772;HTU21D;59066;54.782;32.024;2023-04-25T12:28:24;25.62;18.52
43772;HTU21D;59066;54.782;32.024;2023-04-25T12:31:03;24.79;18.82
43772;HTU21D;59066;54.782;32.024;2023-04-25T12:33:38;23.97;19.57
43772;HTU21D;59066;54.782;32.024;2023-04-25T12:36:07;23.53;19.79
43772;HTU21D;59066;54.782;32.024;2023-04-25T12:38:41;23.23;19.38
43772;HTU21D;59066;54.782;32.024;2023-04-25T12:41:09;23.95;18.68
43772;HTU21D;59066;54.782;32.024;2023-04-25T12:43:36;24.57;18.37
43772;HTU21D;59066;54.782;32.024;2023-04-25T12:46:04;25.21;18.06
43772;HTU21D;59066;54.782;32.024;2023-04-25T12:48:31;26.03;17.36
43772;HTU21D;59066;54.782;32.024;2023-04-25T12:51:00;26.17;17.27
43772;HTU21D;59066;54.782;32.024;2023-04-25T12:53:27;26.21;17.44
43772;HTU21D;59066;54.782;32.024;2023-04-25T12:55:55;26.61;17.41
43772;HTU21D;59066;54.782;32.024;2023-04-25T12:58:23;26.75;17.64
43772;HTU21D;59066;54.782;32.024;2023-04-25T13:00:52;27.15;17.39
43772;HTU21D;59066;54.782;32.024;2023-04-25T13:03:19;27.26;17.22
43772;HTU21D;59066;54.782;32.024;2023-04-25T13:05:47;27.82;17.23
43772;HTU21D;59066;54.782;32.024;2023-04-25T13:08:14;29.13;16.28
43772;HTU21D;59066;54.782;32.024;2023-04-25T13:10:42;27.95;15.93
43772;HTU21D;59066;54.782;32.024;2023-04-25T13:13:10;26.99;16.16
43772;HTU21D;59066;54.782;32.024;2023-04-25T13:15:37;26.04;17.04
43772;HTU21D;59066;54.782;32.024;2023-04-25T13:18:05;25.77;17.09
43772;HTU21D;59066;54.782;32.024;2023-04-25T13:20:33;25.59;17.07
43772;HTU21D;59066;54.782;32.024;2023-04-25T13:23:00;25.37;17.32
43772;HTU21D;59066;54.782;32.024;2023-04-25T13:25:28;25.12;17.41
43772;HTU21D;59066;54.782;32.024;2023-04-25T13:27:56;24.83;17.73
43772;HTU21D;59066;54.782;32.024;2023-04-25T13:30:23;24.71;18.08
43772;HTU21D;59066;54.782;32.024;2023-04-25T13:32:51;24.73;18.20
43772;HTU21D;59066;54.782;32.024;2023-04-25T13:35:19;25.30;18.31
43772;HTU21D;59066;54.782;32.024;2023-04-25T13:37:47;25.84;18.06
43772;HTU21D;59066;54.782;32.024;2023-04-25T13:40:14;25.48;17.95
43772;HTU21D;59066;54.782;32.024;2023-04-25T13:42:42;24.82;18.41
43772;HTU21D;59066;54.782;32.024;2023-04-25T13:45:12;24.12;18.89
43772;HTU21D;59066;54.782;32.024;2023-04-25T13:47:40;23.83;19.25
43772;HTU21D;59066;54.782;32.024;2023-04-25T13:50:08;23.44;19.45
43772;HTU21D;59066;54.782;32.024;2023-04-25T13:52:35;23.12;19.74
43772;HTU21D;59066;54.782;32.024;2023-04-25T13:55:03;22.65;20.62
43772;HTU21D;59066;54.782;32.024;2023-04-25T13:57:34;22.60;20.72
43772;HTU21D;59066;54.782;32.024;2023-04-25T14:00:04;22.57;20.84
43772;HTU21D;59066;54.782;32.024;2023-04-25T14:02:36;22.55;20.95
43772;HTU21D;59066;54.782;32.024;2023-04-25T14:05:04;23.02;21.18
43772;HTU21D;59066;54.782;32.024;2023-04-25T14:07:34;23.82;20.94
43772;HTU21D;59066;54.782;32.024;2023-04-25T14:10:02;24.83;20.30
43772;HTU21D;59066;54.782;32.024;2023-04-25T14:12:32;25.68;19.96
43772;HTU21D;59066;54.782;32.024;2023-04-25T14:15:00;26.81;19.29
43772;HTU21D;59066;54.782;32.024;2023-04-25T14:17:28;27.57;18.54
43772;HTU21D;59066;54.782;32.024;2023-04-25T14:19:55;28.05;18.00
43772;HTU21D;59066;54.782;32.024;2023-04-25T14:22:23;28.60;17.23
43772;HTU21D;59066;54.782;32.024;2023-04-25T14:24:51;28.88;16.87
43772;HTU21D;59066;54.782;32.024;2023-04-25T14:27:19;29.35;16.25
43772;HTU21D;59066;54.782;32.024;2023-04-25T14:29:46;29.87;15.70
43772;HTU21D;59066;54.782;32.024;2023-04-25T14:32:14;30.22;15.06
43772;HTU21D;59066;54.782;32.024;2023-04-25T14:34:42;30.68;14.61
43772;HTU21D;59066;54.782;32.024;2023-04-25T14:37:10;31.25;14.15
43772;HTU21D;59066;54.782;32.024;2023-04-25T14:39:37;31.72;13.55
43772;HTU21D;59066;54.782;32.024;2023-04-25T14:42:05;31.66;13.35
43772;HTU21D;59066;54.782;32.024;2023-04-25T14:44:33;30.98;13.31
43772;HTU21D;59066;54.782;32.024;2023-04-25T14:47:00;29.63;13.84
43772;HTU21D;59066;54.782;32.024;2023-04-25T14:49:28;29.03;14.16
43772;HTU21D;59066;54.782;32.024;2023-04-25T14:51:55;28.37;14.54
43772;HTU21D;59066;54.782;32.024;2023-04-25T14:54:23;27.84;14.73
43772;HTU21D;59066;54.782;32.024;2023-04-25T14:56:50;27.36;14.88
43772;HTU21D;59066;54.782;32.024;2023-04-25T14:59:18;26.92;14.97
43772;HTU21D;59066;54.782;32.024;2023-04-25T15:01:48;26.63;15.13
43772;HTU21D;59066;54.782;32.024;2023-04-25T15:04:16;26.17;15.40
43772;HTU21D;59066;54.782;32.024;2023-04-25T15:06:44;25.73;15.74
43772;HTU21D;59066;54.782;32.024;2023-04-25T15:09:12;25.23;16.16
43772;HTU21D;59066;54.782;32.024;2023-04-25T15:11:39;24.26;18.02
43772;HTU21D;59066;54.782;32.024;2023-04-25T15:14:07;23.11;19.69
43772;HTU21D;59066;54.782;32.024;2023-04-25T15:16:35;22.55;21.24
43772;HTU21D;59066;54.782;32.024;2023-04-25T15:19:02;21.81;21.75
43772;HTU21D;59066;54.782;32.024;2023-04-25T15:21:31;21.48;22.72
43772;HTU21D;59066;54.782;32.024;2023-04-25T15:23:59;21.03;23.36
43772;HTU21D;59066;54.782;32.024;2023-04-25T15:26:27;20.59;24.82
43772;HTU21D;59066;54.782;32.024;2023-04-25T15:28:55;20.37;25.14
43772;HTU21D;59066;54.782;32.024;2023-04-25T15:31:23;20.25;25.42
43772;HTU21D;59066;54.782;32.024;2023-04-25T15:33:50;20.04;26.02
43772;HTU21D;59066;54.782;32.024;2023-04-25T15:36:18;19.86;26.55